Time;durP1;ratioP1;P1;durP2;ratioP2;P2;SDS_P1;SDS_P2;PMS_P1;PMS_P2;Temp;Humidity;BMP_temperature;BMP_pressure;BME280_temperature;BME280_humidity;BME280_pressure;Samples;Min_cycle;Max_cycle;Signal;HPM_P1;HPM_P2
2022/01/03 00:00:11;;;;;;;3.07;1.50;;;;;;;8.96;66.41;96863.41;10295669;28;96890;-74
2022/01/03 00:05:14;;;;;;;3.10;1.50;;;;;;;8.95;67.86;96846.13;10300254;28;97368;-74
2022/01/03 00:10:18;;;;;;;5.38;1.95;;;;;;;8.89;67.19;96846.59;10297538;28;96723;-75
2022/01/03 00:15:24;;;;;;;4.00;1.50;;;;;;;8.76;67.81;96838.94;10293829;28;96895;-75
2022/01/03 00:20:28;;;;;;;;;;;;;;;8.73;68.04;96840.00;10293247;28;96799;-74
2022/01/03 00:25:36;;;;;;;5.32;1.50;;;;;;;8.69;67.68;96836.00;10297322;28;96678;-75
2022/01/03 00:30:42;;;;;;;3.83;1.88;;;;;;;8.75;67.12;96833.84;10295097;28;96900;-75
2022/01/03 00:35:45;;;;;;;6.70;2.03;;;;;;;8.72;66.78;96816.69;10298675;28;96903;-74
2022/01/03 00:40:49;;;;;;;3.70;1.60;;;;;;;8.67;66.81;96809.25;10297204;28;96955;-74
2022/01/03 00:45:54;;;;;;;7.03;1.80;;;;;;;8.64;67.79;96806.06;10296559;28;96713;-74
2022/01/03 00:50:57;;;;;;;6.90;2.13;;;;;;;8.53;67.58;96809.50;10278224;28;97097;-74
2022/01/03 00:56:05;;;;;;;6.65;2.00;;;;;;;8.46;67.41;96821.34;10296332;28;97167;-74
2022/01/03 01:01:11;;;;;;;4.60;1.65;;;;;;;8.46;67.18;96829.16;10296215;28;96850;-74
2022/01/03 01:06:16;;;;;;;3.97;1.77;;;;;;;8.40;67.86;96814.03;10293296;28;96701;-75
2022/01/03 01:11:19;;;;;;;4.25;1.90;;;;;;;8.35;67.94;96810.00;10298730;28;96860;-74
2022/01/03 01:16:25;;;;;;;7.03;2.10;;;;;;;8.30;68.13;96804.31;10295627;28;96838;-74
2022/01/03 01:21:28;;;;;;;5.22;2.05;;;;;;;8.24;68.59;96814.38;10291379;28;96954;-75
2022/01/03 01:31:55;;;;;;;5.50;2.08;;;;;;;8.10;68.64;96829.31;10295431;28;96713;-74
2022/01/03 01:37:00;;;;;;;5.75;1.60;;;;;;;8.04;69.28;96813.31;10295139;28;97401;-75
2022/01/03 01:42:05;;;;;;;8.13;2.30;;;;;;;7.96;69.73;96788.72;10292271;28;96955;-74
2022/01/03 01:47:09;;;;;;;4.63;2.10;;;;;;;7.76;70.15;96784.22;10296312;28;96896;-74
2022/01/03 01:52:18;;;;;;;4.20;1.97;;;;;;;7.62;70.58;96756.66;10293728;28;96843;-75
2022/01/03 01:57:21;;;;;;;8.60;2.33;;;;;;;7.54;70.40;96779.81;10290731;28;96933;-74
2022/01/03 02:02:32;;;;;;;5.47;1.90;;;;;;;7.49;70.38;96777.56;10293215;28;96693;-74
2022/01/03 02:07:55;;;;;;;5.75;1.77;;;;;;;7.35;71.37;96780.34;10293482;28;96704;-75
2022/01/03 02:12:58;;;;;;;4.97;2.10;;;;;;;7.36;71.13;96782.03;10293734;28;96682;-74
2022/01/03 02:18:02;;;;;;;5.70;2.38;;;;;;;7.38;71.16;96800.94;10292462;28;96904;-75
2022/01/03 02:23:07;;;;;;;4.87;2.60;;;;;;;7.35;71.53;96786.41;10295018;28;96959;-74
2022/01/03 02:28:09;;;;;;;4.28;2.72;;;;;;;7.36;71.53;96789.81;10293787;28;96909;-74
2022/01/03 02:33:12;;;;;;;6.43;2.65;;;;;;;7.38;71.20;96780.13;10289330;28;97014;-75
2022/01/03 02:38:16;;;;;;;7.28;2.30;;;;;;;7.24;71.75;96769.94;10295979;28;96846;-74
2022/01/03 02:43:19;;;;;;;7.10;3.20;;;;;;;7.24;71.55;96785.53;10293299;28;96962;-74
2022/01/03 02:48:22;;;;;;;4.85;2.20;;;;;;;6.98;72.14;96767.50;10288662;28;97301;-74
2022/01/03 02:53:27;;;;;;;4.03;2.03;;;;;;;7.06;71.64;96749.56;10287768;28;99509;-74
2022/01/03 02:58:30;;;;;;;5.53;2.37;;;;;;;7.01;72.06;96778.47;10292642;28;96787;-74
2022/01/03 03:03:33;;;;;;;6.22;2.30;;;;;;;7.02;72.21;96782.75;10289821;28;97149;-74
2022/01/03 03:08:37;;;;;;;3.33;1.85;;;;;;;6.99;72.64;96753.56;10295490;28;96667;-74
2022/01/03 03:13:41;;;;;;;4.65;2.20;;;;;;;6.88;72.79;96751.72;10292545;28;96993;-74
2022/01/03 03:18:44;;;;;;;7.90;2.40;;;;;;;6.71;73.13;96771.13;10297207;28;97041;-75
2022/01/03 03:23:49;;;;;;;3.75;2.15;;;;;;;6.74;73.13;96776.09;10298928;28;97112;-75
2022/01/03 03:28:52;;;;;;;5.65;2.53;;;;;;;6.80;73.17;96739.28;10299101;28;96972;-74
2022/01/03 03:33:54;;;;;;;6.68;2.20;;;;;;;6.84;73.17;96745.91;10298866;28;96736;-74
2022/01/03 03:38:58;;;;;;;4.05;2.35;;;;;;;6.96;72.68;96722.63;10280483;28;96667;-74
2022/01/03 03:44:01;;;;;;;6.50;1.88;;;;;;;7.08;72.35;96721.72;10298954;28;96789;-75
2022/01/03 03:49:06;;;;;;;4.80;1.92;;;;;;;7.18;71.62;96714.88;10298413;28;96874;-75
2022/01/03 03:54:11;;;;;;;3.83;1.80;;;;;;;7.35;71.70;96704.97;10296331;28;96796;-75
2022/01/03 03:59:13;;;;;;;4.57;1.40;;;;;;;7.44;71.14;96717.28;10301673;28;98686;-75
2022/01/03 04:04:16;;;;;;;5.72;1.88;;;;;;;7.44;71.59;96719.91;10297852;28;96711;-75
2022/01/03 04:09:21;;;;;;;5.38;1.77;;;;;;;7.40;71.79;96698.47;10294555;28;97071;-75
2022/01/03 04:14:24;;;;;;;4.63;1.80;;;;;;;7.37;72.01;96690.94;10291805;28;96976;-75
2022/01/03 04:19:26;;;;;;;5.60;1.67;;;;;;;7.30;71.79;96694.09;10297292;28;97865;-75
2022/01/03 04:24:31;;;;;;;4.65;1.67;;;;;;;7.29;72.42;96697.66;10294007;28;96761;-75
2022/01/03 04:29:34;;;;;;;5.82;1.83;;;;;;;7.26;72.60;96719.50;10299112;28;96753;-75
2022/01/03 04:34:37;;;;;;;3.38;1.85;;;;;;;7.32;71.98;96731.19;10297023;28;97189;-75
2022/01/03 04:39:45;;;;;;;2.22;1.33;;;;;;;7.40;71.86;96721.06;10295983;28;97223;-75
2022/01/03 04:44:48;;;;;;;5.50;1.77;;;;;;;7.34;72.01;96700.75;10297284;28;96921;-75
2022/01/03 04:49:51;;;;;;;3.20;1.60;;;;;;;7.25;72.12;96693.63;10297654;28;97112;-75
2022/01/03 04:54:56;;;;;;;7.38;1.90;;;;;;;7.24;71.74;96685.00;10296899;28;97019;-75
2022/01/03 04:59:58;;;;;;;7.57;1.13;;;;;;;7.29;71.98;96688.09;10278082;28;100124;-75
2022/01/03 05:05:02;;;;;;;4.57;1.58;;;;;;;7.40;71.43;96674.25;10298077;28;96881;-75
2022/01/03 05:10:07;;;;;;;6.60;1.95;;;;;;;7.40;71.06;96695.06;10296014;28;97325;-75
2022/01/03 05:15:10;;;;;;;3.40;1.40;;;;;;;7.40;71.27;96701.06;10293564;28;96683;-75
2022/01/03 05:20:14;;;;;;;6.75;1.83;;;;;;;7.49;71.29;96709.97;10298674;28;97066;-75
2022/01/03 05:25:18;;;;;;;4.67;1.50;;;;;;;7.62;70.58;96701.22;10295316;28;96708;-75
2022/01/03 05:30:21;;;;;;;5.05;1.42;;;;;;;7.56;70.63;96673.91;10291380;28;96878;-75
2022/01/03 05:35:24;;;;;;;2.55;1.40;;;;;;;7.53;70.96;96675.00;10294703;28;97007;-75
2022/01/03 05:40:28;;;;;;;4.07;1.55;;;;;;;7.50;71.16;96701.22;10294708;28;97973;-75
2022/01/03 05:45:31;;;;;;;4.30;1.52;;;;;;;7.41;71.61;96691.53;10291130;28;96935;-75
2022/01/03 05:50:34;;;;;;;5.72;1.70;;;;;;;7.41;71.65;96704.53;10297219;28;96812;-75
2022/01/03 05:55:39;;;;;;;4.32;1.60;;;;;;;7.39;71.27;96704.63;10293487;28;98120;-75
2022/01/03 06:00:42;;;;;;;5.75;1.45;;;;;;;7.37;71.64;96706.53;10292685;28;96941;-75
2022/01/03 06:06:05;;;;;;;4.55;1.45;;;;;;;7.38;71.79;96676.16;10294729;28;98132;-75
2022/01/03 06:11:10;;;;;;;4.32;1.60;;;;;;;7.37;71.16;96664.94;10295765;28;96802;-75
2022/01/03 06:16:14;;;;;;;3.75;1.50;;;;;;;7.35;71.34;96676.38;10294158;28;97067;-75
2022/01/03 06:21:17;;;;;;;5.07;1.58;;;;;;;7.36;71.41;96689.28;10290569;28;96682;-75
2022/01/03 06:26:22;;;;;;;2.60;1.50;;;;;;;7.37;72.14;96692.69;10296596;28;96923;-75
2022/01/03 06:31:24;;;;;;;4.93;2.08;;;;;;;7.37;71.73;96685.75;10294847;28;96943;-75
2022/01/03 06:36:28;;;;;;;5.68;1.85;;;;;;;7.32;71.62;96671.41;10290063;28;96907;-75
2022/01/03 06:41:35;;;;;;;4.15;1.60;;;;;;;7.35;71.57;96681.59;10295192;28;96864;-76
2022/01/03 06:46:39;;;;;;;4.97;1.52;;;;;;;7.34;71.47;96665.19;10292344;28;97108;-75
2022/01/03 06:51:42;;;;;;;5.10;1.60;;;;;;;7.36;71.41;96665.06;10290975;28;96889;-75
2022/01/03 06:56:46;;;;;;;5.15;1.98;;;;;;;7.37;71.42;96658.91;10293641;28;96895;-75
2022/01/03 07:01:49;;;;;;;7.47;2.23;;;;;;;7.26;72.18;96687.50;10293083;28;97252;-75
2022/01/03 07:06:53;;;;;;;4.03;1.60;;;;;;;7.25;72.25;96681.47;10292645;28;97296;-75
2022/01/03 07:11:57;;;;;;;5.60;1.65;;;;;;;7.24;71.89;96684.19;10291336;28;96696;-75
2022/01/03 07:22:26;;;;;;;3.75;2.10;;;;;;;7.14;72.24;96679.66;10293448;28;99127;-75
2022/01/03 07:27:30;;;;;;;6.50;2.20;;;;;;;7.13;72.68;96685.00;10288708;28;96795;-75
2022/01/03 07:32:33;;;;;;;4.05;1.92;;;;;;;7.11;72.54;96695.50;10294625;28;96849;-75
2022/01/03 07:37:36;;;;;;;5.25;1.83;;;;;;;7.02;72.40;96698.78;10290653;28;96762;-76
2022/01/03 07:42:42;;;;;;;5.90;1.92;;;;;;;7.04;72.79;96691.69;10289648;28;96884;-75
2022/01/03 07:47:45;;;;;;;6.43;2.28;;;;;;;7.03;73.00;96666.66;10292391;28;99476;-75
2022/01/03 07:52:48;;;;;;;4.20;1.95;;;;;;;7.02;73.11;96670.19;10291051;28;98106;-76
2022/01/03 07:57:52;;;;;;;5.50;2.40;;;;;;;6.96;73.21;96674.09;10291175;28;97200;-75
2022/01/03 08:02:55;;;;;;;3.87;2.23;;;;;;;6.74;73.61;96687.78;10292101;28;96762;-75
2022/01/03 08:07:58;;;;;;;5.38;2.42;;;;;;;6.80;73.74;96705.53;10297636;28;96810;-75
2022/01/03 08:13:03;;;;;;;4.13;2.30;;;;;;;6.91;73.46;96706.53;10298643;28;96887;-75
2022/01/03 08:18:06;;;;;;;8.23;2.40;;;;;;;6.97;73.74;96693.09;10296094;28;96876;-75
2022/01/03 08:23:09;;;;;;;8.82;2.92;;;;;;;7.00;73.37;96680.69;10299598;28;97120;-75
2022/01/03 08:28:14;;;;;;;4.97;2.30;;;;;;;7.01;73.78;96689.34;10296385;28;96771;-75
2022/01/03 08:33:17;;;;;;;5.78;2.45;;;;;;;7.00;73.52;96680.69;10293856;28;97250;-76
2022/01/03 08:38:20;;;;;;;6.68;2.58;;;;;;;6.97;74.18;96670.56;10300316;28;96860;-75
2022/01/03 08:43:24;;;;;;;5.25;2.38;;;;;;;6.89;73.88;96657.28;10296938;28;96967;-75
2022/01/03 08:48:28;;;;;;;6.00;2.28;;;;;;;6.93;74.67;96670.88;10292993;28;97004;-75
2022/01/03 08:53:31;;;;;;;5.43;2.60;;;;;;;7.06;74.64;96718.41;10299111;28;97187;-76
2022/01/03 08:58:35;;;;;;;6.70;2.60;;;;;;;7.10;74.17;96699.03;10298215;28;96781;-75
2022/01/03 09:03:38;;;;;;;4.68;2.20;;;;;;;7.30;74.52;96699.31;10294062;28;96764;-75
2022/01/03 09:08:45;;;;;;;5.93;2.00;;;;;;;7.54;73.90;96694.81;10296689;28;96884;-76
2022/01/03 09:13:49;;;;;;;4.63;2.33;;;;;;;7.72;73.96;96689.19;10295865;28;96939;-75
2022/01/03 09:18:52;;;;;;;5.23;2.30;;;;;;;7.84;73.93;96688.22;10293801;28;97187;-76
2022/01/03 09:24:17;;;;;;;4.05;2.38;;;;;;;8.00;73.58;96702.63;10294624;28;96704;-75
2022/01/03 09:29:20;;;;;;;5.70;2.35;;;;;;;8.11;73.04;96705.22;10297844;28;96707;-76
2022/01/03 09:34:23;;;;;;;5.97;2.90;;;;;;;8.21;73.68;96687.91;10294945;28;98702;-76
2022/01/03 09:39:26;;;;;;;4.25;2.40;;;;;;;8.28;73.57;96675.25;10290919;28;96957;-75
2022/01/03 09:44:33;;;;;;;6.10;2.45;;;;;;;8.37;72.68;96694.50;10298523;28;96771;-75
2022/01/03 09:49:38;;;;;;;6.28;2.20;;;;;;;8.46;72.49;96693.75;10294725;28;96701;-76
2022/01/03 09:54:42;;;;;;;4.93;2.28;;;;;;;8.56;71.76;96689.47;10293556;28;99210;-75
2022/01/03 09:59:47;;;;;;;5.22;2.50;;;;;;;8.67;71.29;96686.00;10295646;28;96899;-75
2022/01/03 10:04:51;;;;;;;6.18;2.80;;;;;;;8.68;72.08;96675.44;10293966;28;96897;-76
2022/01/03 10:09:55;;;;;;;4.28;2.10;;;;;;;8.79;71.43;96684.16;10293475;28;96756;-75
2022/01/03 10:14:59;;;;;;;6.30;2.33;;;;;;;8.87;72.40;96671.34;10276742;28;96702;-75
2022/01/03 10:20:04;;;;;;;15.83;4.07;;;;;;;8.93;72.81;96670.81;10293953;28;97784;-76
2022/01/03 10:25:16;;;;;;;7.20;2.88;;;;;;;8.95;73.83;96665.47;10292949;28;96903;-76
2022/01/03 10:30:34;;;;;;;14.38;4.18;;;;;;;8.99;74.26;96648.66;10290398;28;96950;-76
2022/01/03 10:35:39;;;;;;;8.98;3.30;;;;;;;9.10;74.65;96631.16;10290246;28;96701;-76
2022/01/03 10:40:42;;;;;;;;;;;;;;;9.13;74.68;96618.84;10293822;28;97412;-76
2022/01/03 10:45:47;;;;;;;6.05;2.47;;;;;;;9.15;73.47;96609.09;10292690;28;96914;-76
2022/01/03 10:50:53;;;;;;;8.00;3.05;;;;;;;9.37;73.05;96600.28;10293337;28;97335;-76
2022/01/03 10:55:56;;;;;;;11.63;3.00;;;;;;;9.45;71.57;96597.88;10295071;28;96726;-76
2022/01/03 11:01:00;;;;;;;6.72;2.50;;;;;;;9.35;73.19;96608.25;10291293;28;102164;-76
2022/01/03 11:06:14;;;;;;;6.25;2.30;;;;;;;9.46;72.60;96613.38;10290232;28;97149;-76
2022/01/03 11:11:34;;;;;;;3.42;1.80;;;;;;;9.45;71.08;96609.13;10295421;28;96763;-76
2022/01/03 11:16:40;;;;;;;3.97;1.42;;;;;;;9.57;71.00;96598.59;10291794;28;96811;-76
2022/01/03 11:21:44;;;;;;;3.60;1.60;;;;;;;9.66;71.32;96554.28;10290510;28;96851;-76
2022/01/03 11:26:48;;;;;;;5.82;2.10;;;;;;;9.69;70.21;96550.56;10293058;28;96833;-76
2022/01/03 11:31:54;;;;;;;5.35;1.52;;;;;;;9.68;70.08;96548.94;10292035;28;96822;-76
2022/01/03 11:36:58;;;;;;;6.63;1.98;;;;;;;9.66;72.24;96535.19;10293905;28;96797;-76
2022/01/03 11:42:01;;;;;;;3.60;1.83;;;;;;;9.75;70.88;96531.78;10281915;28;96877;-76
2022/01/03 11:47:08;;;;;;;4.80;1.80;;;;;;;9.97;70.74;96530.69;10300385;28;96857;-76
2022/01/03 11:52:14;;;;;;;4.63;1.75;;;;;;;10.16;71.48;96508.97;10297927;28;96825;-76
2022/01/03 11:57:23;;;;;;;6.75;2.40;;;;;;;10.42;69.75;96498.78;10295250;28;96773;-76
2022/01/03 12:07:55;;;;;;;6.25;2.10;;;;;;;10.23;71.18;96504.88;10298789;28;96861;-76
2022/01/03 12:13:00;;;;;;;5.22;1.85;;;;;;;10.30;69.32;96493.84;10298633;28;96742;-76
2022/01/03 12:18:05;;;;;;;3.88;1.52;;;;;;;10.38;67.95;96488.75;10295824;28;97168;-76
2022/01/03 12:23:08;;;;;;;;;;;;;;;10.44;68.85;96475.13;10299213;28;96947;-76
2022/01/03 12:28:11;;;;;;;3.28;1.48;;;;;;;10.50;68.38;96479.81;10298670;28;97205;-76
2022/01/03 12:33:22;;;;;;;2.97;1.58;;;;;;;10.46;67.57;96481.06;10294554;28;97224;-76
2022/01/03 12:38:31;;;;;;;7.32;1.83;;;;;;;10.50;67.25;96463.31;10292400;28;96935;-76
2022/01/03 12:43:50;;;;;;;5.55;1.63;;;;;;;10.49;68.82;96465.09;10295712;28;96729;-77
2022/01/03 12:48:56;;;;;;;4.22;2.10;;;;;;;10.47;67.50;96472.25;10295300;28;96860;-77
2022/01/03 12:53:59;;;;;;;3.88;1.90;;;;;;;10.41;69.81;96454.53;10277877;28;102262;-77
2022/01/03 12:59:14;;;;;;;3.90;1.80;;;;;;;10.47;67.67;96446.13;10296206;28;96872;-77
2022/01/03 13:04:25;;;;;;;;;;;;;;;10.50;68.60;96447.66;10296623;28;96866;-77
2022/01/03 13:09:28;;;;;;;4.35;0.98;;;;;;;10.42;68.19;96430.06;10292415;28;98003;-77
2022/01/03 13:14:32;;;;;;;2.45;0.95;;;;;;;10.33;69.58;96420.47;10298098;28;96865;-77
2022/01/03 13:19:38;;;;;;;3.65;0.85;;;;;;;10.33;70.22;96410.03;10296752;28;96706;-77
2022/01/03 13:24:44;;;;;;;3.65;1.05;;;;;;;10.33;68.65;96397.78;10293787;28;96981;-77
2022/01/03 13:29:49;;;;;;;4.95;1.15;;;;;;;10.32;68.98;96374.41;10295894;28;96889;-77
2022/01/03 13:34:56;;;;;;;5.13;1.45;;;;;;;10.46;69.78;96362.69;10294271;28;96822;-77
2022/01/03 13:40:03;;;;;;;3.70;1.92;;;;;;;10.50;69.74;96364.88;10294718;28;96830;-77
2022/01/03 13:49:11;;;;;;;5.38;1.90;;;;;;;10.44;70.18;96349.75;10293378;28;97282;-77
2022/01/03 13:50:42;;;;;;;4.10;1.85;;;;;;;10.48;69.77;96340.69;10296188;28;96977;-77
2022/01/03 13:55:45;;;;;;;4.00;1.80;;;;;;;10.59;68.37;96331.84;10294806;28;100178;-77
2022/01/03 14:00:51;;;;;;;9.27;2.95;;;;;;;10.51;69.05;96332.56;10292206;28;96930;-77
2022/01/03 14:06:18;;;;;;;6.28;1.83;;;;;;;10.45;67.93;96327.09;10293681;28;96928;-77
2022/01/03 14:11:22;;;;;;;5.88;1.83;;;;;;;10.48;67.13;96325.03;10297467;28;96904;-77
2022/01/03 14:16:27;;;;;;;5.17;1.60;;;;;;;10.47;66.86;96301.66;10294304;28;100181;-77
2022/01/03 14:21:34;;;;;;;3.65;2.03;;;;;;;10.43;66.23;96301.94;10290264;28;96837;-77
2022/01/03 14:26:38;;;;;;;5.30;1.90;;;;;;;10.35;66.85;96311.47;10295028;28;96826;-77
2022/01/03 14:31:45;;;;;;;3.42;1.95;;;;;;;10.29;66.34;96312.88;10293770;28;96971;-77
2022/01/03 14:36:50;;;;;;;3.20;2.00;;;;;;;10.24;67.15;96315.09;10292182;28;97111;-77
2022/01/03 14:42:01;;;;;;;4.50;2.17;;;;;;;10.20;66.98;96298.91;10293257;28;96717;-77
2022/01/03 14:47:07;;;;;;;4.00;2.17;;;;;;;10.17;67.08;96288.72;10296030;28;97021;-77
2022/01/03 14:52:11;;;;;;;3.88;1.67;;;;;;;10.10;67.35;96300.72;10293068;28;96818;-77
2022/01/03 14:57:19;;;;;;;4.57;1.90;;;;;;;10.07;67.53;96316.66;10290356;28;96721;-77
2022/01/03 15:02:22;;;;;;;4.30;1.85;;;;;;;10.03;67.31;96304.88;10296795;28;96969;-77
2022/01/03 15:07:29;;;;;;;4.25;1.60;;;;;;;9.99;68.10;96293.06;10292740;28;97032;-77
2022/01/03 15:12:32;;;;;;;6.90;2.15;;;;;;;10.01;67.89;96291.16;10292496;28;97160;-77
2022/01/03 15:17:34;;;;;;;6.25;2.03;;;;;;;9.98;67.47;96301.88;10301537;28;97033;-77
2022/01/03 15:22:39;;;;;;;3.33;1.63;;;;;;;9.93;68.37;96293.63;10299337;28;96739;-77
2022/01/03 15:27:42;;;;;;;3.47;1.83;;;;;;;9.84;67.31;96275.25;10298067;28;96887;-77
2022/01/03 15:32:45;;;;;;;5.93;2.05;;;;;;;9.77;67.66;96268.97;10300211;28;96920;-77
2022/01/03 15:37:49;;;;;;;5.40;2.38;;;;;;;9.70;67.99;96267.03;10298896;28;96905;-77
2022/01/03 15:42:52;;;;;;;3.17;1.63;;;;;;;9.63;69.54;96238.13;10298860;28;96837;-77
2022/01/03 15:47:55;;;;;;;4.95;1.67;;;;;;;9.61;69.19;96229.59;10298965;28;96752;-77
2022/01/03 15:53:01;;;;;;;4.40;1.80;;;;;;;9.66;67.53;96224.78;10299888;28;96859;-77
2022/01/03 15:58:04;;;;;;;2.67;1.45;;;;;;;9.62;67.28;96215.59;10298943;28;97092;-77
2022/01/03 16:03:08;;;;;;;3.53;1.80;;;;;;;9.51;69.24;96216.59;10296445;28;96825;-77
2022/01/03 16:08:12;;;;;;;3.92;2.30;;;;;;;9.38;70.16;96211.63;10298581;28;97504;-77
2022/01/03 16:13:15;;;;;;;7.37;4.57;;;;;;;9.25;71.48;96191.09;10298396;28;97081;-77
2022/01/03 16:18:18;;;;;;;7.55;3.72;;;;;;;9.17;71.41;96195.38;10294414;28;96736;-77
2022/01/03 16:23:22;;;;;;;5.50;3.10;;;;;;;9.06;71.46;96186.75;10299516;28;96828;-77
2022/01/03 16:28:25;;;;;;;4.40;2.27;;;;;;;8.92;72.10;96189.78;10297720;28;99867;-77
2022/01/03 16:33:28;;;;;;;4.90;3.17;;;;;;;8.79;72.38;96199.66;10293048;28;97795;-77
2022/01/03 16:38:32;;;;;;;6.03;2.20;;;;;;;8.62;73.16;96183.78;10300082;28;96795;-78
2022/01/03 16:43:35;;;;;;;4.70;2.53;;;;;;;8.55;72.58;96182.66;10298028;28;96688;-77
2022/01/03 16:48:39;;;;;;;4.30;2.70;;;;;;;8.49;72.35;96164.97;10294122;28;96752;-77
2022/01/03 16:53:43;;;;;;;5.53;2.72;;;;;;;8.47;72.13;96161.69;10298290;28;96820;-77
2022/01/03 16:58:46;;;;;;;8.37;4.70;;;;;;;8.43;71.65;96162.91;10295586;28;97120;-77
2022/01/03 17:03:50;;;;;;;10.05;5.90;;;;;;;8.35;71.90;96169.63;10295139;28;97260;-77
2022/01/03 17:08:54;;;;;;;9.53;6.13;;;;;;;8.37;71.28;96158.25;10296286;28;96789;-77
2022/01/03 17:13:57;;;;;;;7.43;3.80;;;;;;;8.37;72.34;96142.66;10295625;28;96842;-77
2022/01/03 17:19:00;;;;;;;6.13;3.40;;;;;;;8.34;72.22;96141.97;10295949;28;96864;-77
2022/01/03 17:24:05;;;;;;;6.80;3.20;;;;;;;8.27;73.40;96138.25;10293289;28;96946;-77
2022/01/03 17:29:08;;;;;;;5.07;3.10;;;;;;;8.29;73.18;96125.94;10296783;28;96947;-77
2022/01/03 17:34:11;;;;;;;9.00;4.38;;;;;;;8.34;73.38;96113.34;10295967;28;96844;-77
2022/01/03 17:39:15;;;;;;;7.63;3.58;;;;;;;8.36;72.92;96118.41;10293502;28;96742;-77
2022/01/03 17:44:18;;;;;;;6.10;3.53;;;;;;;8.33;73.95;96116.88;10297796;28;96676;-77
2022/01/03 17:49:21;;;;;;;5.60;3.13;;;;;;;8.35;72.41;96101.94;10294371;28;96961;-77
2022/01/03 17:54:25;;;;;;;6.47;4.18;;;;;;;8.42;72.66;96086.59;10290864;28;96949;-77
2022/01/03 17:59:28;;;;;;;6.82;3.25;;;;;;;8.41;73.60;96086.75;10289712;28;97884;-77
2022/01/03 18:04:31;;;;;;;8.27;3.60;;;;;;;8.33;73.79;96090.84;10294196;28;96779;-77
2022/01/03 18:09:37;;;;;;;6.82;3.63;;;;;;;8.30;74.15;96080.72;10291940;28;96774;-77
2022/01/03 18:14:40;;;;;;;6.55;3.08;;;;;;;8.35;73.47;96067.31;10296172;28;96867;-77
2022/01/03 18:19:43;;;;;;;8.13;4.20;;;;;;;8.34;72.38;96050.88;10293947;28;97499;-77
2022/01/03 18:24:48;;;;;;;8.10;4.10;;;;;;;8.31;73.64;96061.56;10293274;28;96968;-77
2022/01/03 18:29:51;;;;;;;4.82;3.13;;;;;;;8.31;73.22;96060.75;10294520;28;97111;-77
2022/01/03 18:34:54;;;;;;;6.78;3.10;;;;;;;8.37;72.78;96048.94;10293595;28;96760;-77
2022/01/03 18:39:58;;;;;;;7.85;3.17;;;;;;;8.39;71.49;96041.81;10294090;28;96769;-77
2022/01/03 18:45:01;;;;;;;6.73;4.00;;;;;;;8.39;71.01;96045.22;10274880;28;96896;-77
2022/01/03 18:50:06;;;;;;;5.55;4.22;;;;;;;8.33;72.33;96031.00;10293595;28;97068;-77
2022/01/03 18:55:11;;;;;;;6.40;4.05;;;;;;;8.33;72.29;96044.00;10293010;28;96952;-77
2022/01/03 19:00:15;;;;;;;7.13;4.55;;;;;;;8.41;72.41;96034.69;10290275;28;96696;-77
2022/01/03 19:05:18;;;;;;;7.47;5.57;;;;;;;8.42;71.46;95999.91;10295322;28;96702;-77
2022/01/03 19:10:23;;;;;;;8.38;5.18;;;;;;;8.34;72.67;96003.19;10292964;28;96896;-77
2022/01/03 19:15:26;;;;;;;8.60;5.30;;;;;;;8.28;71.40;96009.78;10288981;28;96885;-77
2022/01/03 19:20:32;;;;;;;6.00;3.42;;;;;;;8.21;72.31;96003.47;10288010;28;97741;-77
2022/01/03 19:25:37;;;;;;;5.57;3.60;;;;;;;8.22;72.69;95999.94;10292186;28;99790;-77
2022/01/03 19:30:41;;;;;;;7.68;4.30;;;;;;;8.23;73.07;95993.75;10288660;28;96898;-77
2022/01/03 19:41:06;;;;;;;9.55;5.45;;;;;;;8.20;73.00;95983.63;10294868;28;96870;-77
2022/01/03 19:46:09;;;;;;;11.27;5.18;;;;;;;8.24;72.65;95971.13;10290903;28;98166;-77
2022/01/03 19:51:14;;;;;;;7.80;3.77;;;;;;;8.19;72.22;95973.34;10289619;28;97128;-77
2022/01/03 19:56:18;;;;;;;6.55;4.32;;;;;;;8.08;73.75;95963.91;10293897;28;96845;-77
2022/01/03 20:01:24;;;;;;;9.03;4.37;;;;;;;8.00;73.43;95953.41;10297969;28;96940;-77
2022/01/03 20:06:28;;;;;;;5.57;3.90;;;;;;;7.99;73.77;95936.94;10295253;28;96943;-77
2022/01/03 20:11:32;;;;;;;7.30;3.33;;;;;;;8.03;72.63;95934.88;10301203;28;96864;-77
2022/01/03 20:16:36;;;;;;;8.75;3.42;;;;;;;8.01;73.51;95944.63;10298100;28;96695;-77
2022/01/03 20:21:40;;;;;;;5.00;2.45;;;;;;;8.00;72.20;95930.00;10294403;28;96761;-77
2022/01/03 20:26:44;;;;;;;6.15;3.05;;;;;;;7.98;71.81;95925.72;10298497;28;96890;-77
2022/01/03 20:31:49;;;;;;;7.73;4.00;;;;;;;7.92;72.89;95918.47;10297508;28;96907;-77
2022/01/03 20:36:52;;;;;;;5.07;2.90;;;;;;;7.94;72.15;95919.19;10296814;28;96859;-77
2022/01/03 20:41:56;;;;;;;6.97;3.22;;;;;;;7.83;72.76;95916.72;10296685;28;96842;-77
2022/01/03 20:46:59;;;;;;;5.03;3.42;;;;;;;7.86;72.26;95919.03;10297748;28;96800;-77
2022/01/03 20:52:03;;;;;;;8.68;3.22;;;;;;;7.88;72.01;95909.31;10296985;28;96884;-77
2022/01/03 20:57:08;;;;;;;6.00;3.47;;;;;;;7.81;72.59;95908.25;10295403;28;96918;-77
2022/01/03 21:02:13;;;;;;;7.50;3.67;;;;;;;7.79;72.22;95897.16;10297871;28;96840;-77
2022/01/03 21:07:16;;;;;;;7.32;3.28;;;;;;;7.86;72.57;95880.03;10296678;28;96683;-77
2022/01/03 21:12:20;;;;;;;5.65;3.30;;;;;;;7.78;72.19;95872.09;10291187;28;96701;-77
2022/01/03 21:17:23;;;;;;;7.00;3.70;;;;;;;7.82;71.80;95868.25;10299056;28;100008;-77
2022/01/03 21:22:26;;;;;;;6.95;3.40;;;;;;;7.72;72.39;95854.47;10295995;28;100047;-77
2022/01/03 21:27:30;;;;;;;6.03;3.58;;;;;;;7.75;72.27;95854.16;10291692;28;98561;-77
2022/01/03 21:32:33;;;;;;;5.82;3.67;;;;;;;7.73;72.68;95849.09;10298409;28;96695;-77
2022/01/03 21:37:36;;;;;;;7.70;3.88;;;;;;;7.74;71.59;95857.75;10295774;28;96714;-77
2022/01/03 21:42:40;;;;;;;5.20;3.35;;;;;;;7.70;71.61;95836.41;10292604;28;96692;-77
2022/01/03 21:47:43;;;;;;;5.18;3.58;;;;;;;7.79;71.97;95839.94;10297472;28;96852;-77
2022/01/03 21:52:46;;;;;;;6.75;3.78;;;;;;;7.84;71.12;95835.16;10294415;28;96928;-77
2022/01/03 21:57:50;;;;;;;5.20;3.33;;;;;;;7.85;71.15;95830.75;10293299;28;96898;-77
2022/01/03 22:02:56;;;;;;;7.13;3.63;;;;;;;7.78;71.10;95820.91;10293520;28;96805;-77
2022/01/03 22:07:59;;;;;;;6.22;3.42;;;;;;;7.90;70.07;95818.16;10293969;28;96763;-77
2022/01/03 22:13:03;;;;;;;6.75;3.30;;;;;;;7.91;69.37;95805.00;10294948;28;96858;-77
2022/01/03 22:18:06;;;;;;;5.43;3.70;;;;;;;7.91;69.54;95805.00;10282201;28;99764;-77
2022/01/03 22:23:09;;;;;;;6.30;3.72;;;;;;;7.86;69.73;95796.81;10292928;28;97195;-77
2022/01/03 22:28:13;;;;;;;5.63;3.58;;;;;;;7.74;70.67;95787.56;10293267;28;96818;-77
2022/01/03 22:33:16;;;;;;;5.43;3.60;;;;;;;7.83;69.61;95776.28;10272299;28;97162;-77
2022/01/03 22:38:20;;;;;;;5.30;3.00;;;;;;;7.86;69.04;95775.19;10276140;28;96730;-77
2022/01/03 22:43:24;;;;;;;5.22;3.38;;;;;;;7.88;69.50;95763.69;10280450;28;96929;-77
2022/01/03 22:48:27;;;;;;;6.30;3.37;;;;;;;7.91;68.65;95768.59;10288843;28;97001;-77
2022/01/03 22:53:30;;;;;;;4.97;3.08;;;;;;;7.84;69.30;95761.50;10279562;28;96908;-77
2022/01/03 22:58:34;;;;;;;7.53;3.83;;;;;;;7.79;69.99;95754.13;10292857;28;96862;-77
2022/01/03 23:03:43;;;;;;;7.00;2.97;;;;;;;7.83;69.68;95750.28;10287361;28;97360;-77
2022/01/03 23:08:47;;;;;;;4.53;2.60;;;;;;;7.84;69.40;95746.72;10279796;28;101381;-77
2022/01/03 23:39:32;;;;;;;6.57;3.10;;;;;;;7.90;68.68;95704.53;10266533;28;102700;-78
2022/01/03 23:44:35;;;;;;;6.18;3.10;;;;;;;7.98;67.91;95693.44;10301423;28;96722;-78
2022/01/03 23:49:38;;;;;;;5.20;3.20;;;;;;;7.95;68.81;95686.72;10296915;28;96726;-78
2022/01/03 23:54:42;;;;;;;6.60;2.95;;;;;;;8.02;68.70;95692.16;10289277;28;96841;-78
2022/01/03 23:59:45;;;;;;;6.20;3.00;;;;;;;7.86;70.15;95690.19;10299896;28;96899;-77
